Decoded Metar for GCLP (LAS PALMAS in SPAIN) (IATA:LPA) | Meteo·Mobile Aviation Weather
aviador You're here:

GCLP Decoded Metar

LAS PALMAS in SPAIN
Report Time2018-11-17 02:00:00
UTC Time2018-11-17 02:10:07
Flight Rules vfr VFR
Wind240° at 04 kt
W.Decomp.*RWY 21: 3.3 kt HW 2.3 kt RCW
W.Rank240° ranks 35
Current wind is below 240° avg. (5.2)
Visibility9999 m
Phenomena:N/A
Clouds:Few 035 Hf
Expected CloudBase > 2,400 ft AGL from Temp-Dew spread
CeilingNone
Temp18°C (ISA +3)
Dew Point12°C (68% RH)
AAT17.2°C
QNH1013 hPa
Density Alt643 ft
Elevation82 ft
Report Wrong Elevation
Raw Report
METAR GCLP 170200Z 24004KT 220V280 9999 FEW035 18/12 Q1013 NOSIG=

Extra information for GCLP:More info

Metar Taf Metar & Taf Last 4 Metars F.Rules Stats Wind Profile Meteogram Temp Stats Airport Information Weather charts Add Link Nearby VenuesMetar ALERT Operation Metar Decoded Social comments